<?xml version='1.0' encoding='UTF-8'?>
<gpx version="1.1" creator="https://www.komoot.de" xmlns="http://www.topografix.com/GPX/1/1" xmlns:xsi="http://www.w3.org/2001/XMLSchema-instance" xsi:schemaLocation="http://www.topografix.com/GPX/1/1 http://www.topografix.com/GPX/1/1/gpx.xsd">
  <metadata>
    <name>Tappa 4 - da Gubbio all'Eremo di San Pietro in Vigneto</name>
    <author>
      <link href="https://www.komoot.de">
        <text>komoot</text>
        <type>text/html</type>
      </link>
    </author>
  </metadata>
  <trk>
    <name>Tappa 4 - da Gubbio all'Eremo di San Pietro in Vigneto</name>
    <trkseg>
      <trkpt lat="43.351894" lon="12.576361">
        <ele>491.628621</ele>
        <time>2026-04-23T06:43:45.282Z</time>
      </trkpt>
      <trkpt lat="43.351786" lon="12.576661">
        <ele>491.628621</ele>
        <time>2026-04-23T06:44:10.981Z</time>
      </trkpt>
      <trkpt lat="43.351711" lon="12.576960">
        <ele>491.628621</ele>
        <time>2026-04-23T06:44:35.321Z</time>
      </trkpt>
      <trkpt lat="43.351676" lon="12.577014">
        <ele>491.628621</ele>
        <time>2026-04-23T06:44:40.894Z</time>
      </trkpt>
      <trkpt lat="43.351625" lon="12.577034">
        <ele>491.628621</ele>
        <time>2026-04-23T06:44:46.540Z</time>
      </trkpt>
      <trkpt lat="43.351300" lon="12.576892">
        <ele>491.621757</ele>
        <time>2026-04-23T06:45:22.830Z</time>
      </trkpt>
      <trkpt lat="43.351082" lon="12.576843">
        <ele>491.548606</ele>
        <time>2026-04-23T06:45:46.438Z</time>
      </trkpt>
      <trkpt lat="43.350831" lon="12.576846">
        <ele>491.465483</ele>
        <time>2026-04-23T06:46:13.007Z</time>
      </trkpt>
      <trkpt lat="43.350767" lon="12.576877">
        <ele>491.443012</ele>
        <time>2026-04-23T06:46:20.117Z</time>
      </trkpt>
      <trkpt lat="43.350696" lon="12.576883">
        <ele>491.419456</ele>
        <time>2026-04-23T06:46:27.415Z</time>
      </trkpt>
      <trkpt lat="43.350601" lon="12.576885">
        <ele>491.387992</ele>
        <time>2026-04-23T06:46:37.154Z</time>
      </trkpt>
      <trkpt lat="43.350524" lon="12.576909">
        <ele>491.361846</ele>
        <time>2026-04-23T06:46:45.006Z</time>
      </trkpt>
      <trkpt lat="43.350501" lon="12.576898">
        <ele>491.353782</ele>
        <time>2026-04-23T06:46:47.530Z</time>
      </trkpt>
      <trkpt lat="43.350468" lon="12.576849">
        <ele>491.337700</ele>
        <time>2026-04-23T06:46:52.511Z</time>
      </trkpt>
      <trkpt lat="43.350457" lon="12.577007">
        <ele>491.299478</ele>
        <time>2026-04-23T06:47:04.224Z</time>
      </trkpt>
      <trkpt lat="43.350426" lon="12.577444">
        <ele>491.193746</ele>
        <time>2026-04-23T06:47:36.468Z</time>
      </trkpt>
      <trkpt lat="43.350414" lon="12.577596">
        <ele>491.156928</ele>
        <time>2026-04-23T06:47:47.614Z</time>
      </trkpt>
      <trkpt lat="43.350225" lon="12.577873">
        <ele>491.065458</ele>
        <time>2026-04-23T06:48:15.265Z</time>
      </trkpt>
      <trkpt lat="43.350176" lon="12.578062">
        <ele>491.110534</ele>
        <time>2026-04-23T06:48:29.978Z</time>
      </trkpt>
      <trkpt lat="43.350179" lon="12.578224">
        <ele>491.301487</ele>
        <time>2026-04-23T06:48:42.075Z</time>
      </trkpt>
      <trkpt lat="43.350135" lon="12.578245">
        <ele>491.376958</ele>
        <time>2026-04-23T06:48:46.822Z</time>
      </trkpt>
      <trkpt lat="43.349427" lon="12.578577">
        <ele>492.589096</ele>
        <time>2026-04-23T06:50:07.458Z</time>
      </trkpt>
      <trkpt lat="43.349120" lon="12.578826">
        <ele>493.166652</ele>
        <time>2026-04-23T06:50:45.603Z</time>
      </trkpt>
      <trkpt lat="43.348819" lon="12.579163">
        <ele>493.795617</ele>
        <time>2026-04-23T06:51:27.186Z</time>
      </trkpt>
      <trkpt lat="43.348662" lon="12.579432">
        <ele>494.154746</ele>
        <time>2026-04-23T06:51:55.051Z</time>
      </trkpt>
      <trkpt lat="43.348385" lon="12.579985">
        <ele>494.798886</ele>
        <time>2026-04-23T06:52:50.208Z</time>
      </trkpt>
      <trkpt lat="43.348144" lon="12.580528">
        <ele>495.409118</ele>
        <time>2026-04-23T06:53:41.156Z</time>
      </trkpt>
      <trkpt lat="43.348087" lon="12.580648">
        <ele>495.546611</ele>
        <time>2026-04-23T06:53:52.397Z</time>
      </trkpt>
      <trkpt lat="43.348072" lon="12.580680">
        <ele>495.583133</ele>
        <time>2026-04-23T06:53:55.349Z</time>
      </trkpt>
      <trkpt lat="43.347716" lon="12.581411">
        <ele>496.056118</ele>
        <time>2026-04-23T06:55:03.165Z</time>
      </trkpt>
      <trkpt lat="43.347235" lon="12.582413">
        <ele>493.209560</ele>
        <time>2026-04-23T06:56:34.585Z</time>
      </trkpt>
      <trkpt lat="43.346721" lon="12.582087">
        <ele>491.364116</ele>
        <time>2026-04-23T06:57:37.316Z</time>
      </trkpt>
      <trkpt lat="43.346662" lon="12.582115">
        <ele>491.160626</ele>
        <time>2026-04-23T06:57:44.453Z</time>
      </trkpt>
      <trkpt lat="43.346489" lon="12.581974">
        <ele>490.504968</ele>
        <time>2026-04-23T06:58:07.616Z</time>
      </trkpt>
      <trkpt lat="43.346011" lon="12.581647">
        <ele>487.260488</ele>
        <time>2026-04-23T06:59:09.666Z</time>
      </trkpt>
      <trkpt lat="43.345731" lon="12.581512">
        <ele>485.433205</ele>
        <time>2026-04-23T06:59:43.914Z</time>
      </trkpt>
      <trkpt lat="43.345510" lon="12.581385">
        <ele>483.958124</ele>
        <time>2026-04-23T07:00:11.199Z</time>
      </trkpt>
      <trkpt lat="43.345438" lon="12.581345">
        <ele>483.479896</ele>
        <time>2026-04-23T07:00:20.005Z</time>
      </trkpt>
      <trkpt lat="43.345339" lon="12.581288">
        <ele>482.818925</ele>
        <time>2026-04-23T07:00:32.188Z</time>
      </trkpt>
      <trkpt lat="43.345160" lon="12.581178">
        <ele>481.611492</ele>
        <time>2026-04-23T07:00:54.249Z</time>
      </trkpt>
      <trkpt lat="43.344702" lon="12.580933">
        <ele>478.753072</ele>
        <time>2026-04-23T07:01:49.385Z</time>
      </trkpt>
      <trkpt lat="43.344456" lon="12.580699">
        <ele>477.300689</ele>
        <time>2026-04-23T07:02:22.472Z</time>
      </trkpt>
      <trkpt lat="43.344203" lon="12.580376">
        <ele>475.624419</ele>
        <time>2026-04-23T07:03:00.726Z</time>
      </trkpt>
      <trkpt lat="43.344169" lon="12.580310">
        <ele>475.338820</ele>
        <time>2026-04-23T07:03:07.313Z</time>
      </trkpt>
      <trkpt lat="43.344052" lon="12.580104">
        <ele>474.415865</ele>
        <time>2026-04-23T07:03:28.426Z</time>
      </trkpt>
      <trkpt lat="43.343287" lon="12.578879">
        <ele>469.393550</ele>
        <time>2026-04-23T07:05:36.427Z</time>
      </trkpt>
      <trkpt lat="43.343241" lon="12.578877">
        <ele>469.248662</ele>
        <time>2026-04-23T07:05:41.411Z</time>
      </trkpt>
      <trkpt lat="43.343235" lon="12.578828">
        <ele>469.134897</ele>
        <time>2026-04-23T07:05:45.252Z</time>
      </trkpt>
      <trkpt lat="43.343274" lon="12.578682">
        <ele>468.778793</ele>
        <time>2026-04-23T07:05:57.324Z</time>
      </trkpt>
      <trkpt lat="43.343301" lon="12.578604">
        <ele>468.581014</ele>
        <time>2026-04-23T07:06:03.975Z</time>
      </trkpt>
      <trkpt lat="43.343294" lon="12.578203">
        <ele>467.662655</ele>
        <time>2026-04-23T07:06:34.866Z</time>
      </trkpt>
      <trkpt lat="43.343277" lon="12.578163">
        <ele>467.556583</ele>
        <time>2026-04-23T07:06:38.365Z</time>
      </trkpt>
      <trkpt lat="43.343238" lon="12.578128">
        <ele>467.409968</ele>
        <time>2026-04-23T07:06:43.308Z</time>
      </trkpt>
      <trkpt lat="43.343182" lon="12.578138">
        <ele>467.232191</ele>
        <time>2026-04-23T07:06:49.189Z</time>
      </trkpt>
      <trkpt lat="43.343172" lon="12.578145">
        <ele>467.196865</ele>
        <time>2026-04-23T07:06:50.331Z</time>
      </trkpt>
      <trkpt lat="43.343022" lon="12.578114">
        <ele>466.719337</ele>
        <time>2026-04-23T07:07:06.116Z</time>
      </trkpt>
      <trkpt lat="43.342995" lon="12.578107">
        <ele>466.632839</ele>
        <time>2026-04-23T07:07:09.006Z</time>
      </trkpt>
      <trkpt lat="43.342476" lon="12.578083">
        <ele>464.998020</ele>
        <time>2026-04-23T07:08:02.581Z</time>
      </trkpt>
      <trkpt lat="43.342288" lon="12.578080">
        <ele>464.559452</ele>
        <time>2026-04-23T07:08:22.235Z</time>
      </trkpt>
      <trkpt lat="43.341254" lon="12.577999">
        <ele>462.164566</ele>
        <time>2026-04-23T07:10:10.817Z</time>
      </trkpt>
      <trkpt lat="43.340366" lon="12.577921">
        <ele>460.081973</ele>
        <time>2026-04-23T07:11:44.053Z</time>
      </trkpt>
      <trkpt lat="43.339102" lon="12.577849">
        <ele>457.054651</ele>
        <time>2026-04-23T07:13:56.909Z</time>
      </trkpt>
      <trkpt lat="43.338612" lon="12.577811">
        <ele>455.828273</ele>
        <time>2026-04-23T07:14:48.679Z</time>
      </trkpt>
      <trkpt lat="43.337112" lon="12.577726">
        <ele>451.944193</ele>
        <time>2026-04-23T07:17:27.315Z</time>
      </trkpt>
      <trkpt lat="43.335696" lon="12.577667">
        <ele>448.491344</ele>
        <time>2026-04-23T07:19:56.234Z</time>
      </trkpt>
      <trkpt lat="43.335575" lon="12.577652">
        <ele>448.195622</ele>
        <time>2026-04-23T07:20:08.994Z</time>
      </trkpt>
      <trkpt lat="43.334213" lon="12.577569">
        <ele>445.205330</ele>
        <time>2026-04-23T07:22:31.886Z</time>
      </trkpt>
      <trkpt lat="43.333082" lon="12.577520">
        <ele>442.928860</ele>
        <time>2026-04-23T07:24:29.630Z</time>
      </trkpt>
      <trkpt lat="43.333042" lon="12.577519">
        <ele>442.856702</ele>
        <time>2026-04-23T07:24:33.697Z</time>
      </trkpt>
      <trkpt lat="43.332044" lon="12.577475">
        <ele>441.055723</ele>
        <time>2026-04-23T07:26:17.163Z</time>
      </trkpt>
      <trkpt lat="43.330793" lon="12.577376">
        <ele>438.961402</ele>
        <time>2026-04-23T07:28:27.086Z</time>
      </trkpt>
      <trkpt lat="43.330204" lon="12.577357">
        <ele>438.007426</ele>
        <time>2026-04-23T07:29:28.079Z</time>
      </trkpt>
      <trkpt lat="43.329194" lon="12.577272">
        <ele>436.412183</ele>
        <time>2026-04-23T07:31:12.291Z</time>
      </trkpt>
      <trkpt lat="43.328531" lon="12.577273">
        <ele>435.379508</ele>
        <time>2026-04-23T07:32:20.674Z</time>
      </trkpt>
      <trkpt lat="43.328024" lon="12.577285">
        <ele>434.592758</ele>
        <time>2026-04-23T07:33:13.277Z</time>
      </trkpt>
      <trkpt lat="43.327411" lon="12.577238">
        <ele>433.662313</ele>
        <time>2026-04-23T07:34:16.906Z</time>
      </trkpt>
      <trkpt lat="43.324469" lon="12.577019">
        <ele>429.374562</ele>
        <time>2026-04-23T07:39:20.764Z</time>
      </trkpt>
      <trkpt lat="43.323408" lon="12.576983">
        <ele>428.016061</ele>
        <time>2026-04-23T07:41:09.246Z</time>
      </trkpt>
      <trkpt lat="43.322832" lon="12.576911">
        <ele>427.275734</ele>
        <time>2026-04-23T07:42:08.382Z</time>
      </trkpt>
      <trkpt lat="43.322161" lon="12.576867">
        <ele>426.188738</ele>
        <time>2026-04-23T07:43:17.765Z</time>
      </trkpt>
      <trkpt lat="43.321411" lon="12.576904">
        <ele>424.917331</ele>
        <time>2026-04-23T07:44:35.755Z</time>
      </trkpt>
      <trkpt lat="43.320403" lon="12.576781">
        <ele>423.258995</ele>
        <time>2026-04-23T07:46:21.245Z</time>
      </trkpt>
      <trkpt lat="43.319729" lon="12.576767">
        <ele>422.190781</ele>
        <time>2026-04-23T07:47:31.114Z</time>
      </trkpt>
      <trkpt lat="43.317030" lon="12.576597">
        <ele>418.282170</ele>
        <time>2026-04-23T07:52:09.460Z</time>
      </trkpt>
      <trkpt lat="43.316284" lon="12.576537">
        <ele>417.351410</ele>
        <time>2026-04-23T07:53:25.958Z</time>
      </trkpt>
      <trkpt lat="43.314334" lon="12.576407">
        <ele>415.053386</ele>
        <time>2026-04-23T07:56:45.703Z</time>
      </trkpt>
      <trkpt lat="43.314253" lon="12.576403">
        <ele>414.961520</ele>
        <time>2026-04-23T07:56:54.040Z</time>
      </trkpt>
      <trkpt lat="43.313779" lon="12.576359">
        <ele>414.423056</ele>
        <time>2026-04-23T07:57:42.903Z</time>
      </trkpt>
      <trkpt lat="43.313746" lon="12.576355">
        <ele>414.385508</ele>
        <time>2026-04-23T07:57:46.327Z</time>
      </trkpt>
      <trkpt lat="43.312454" lon="12.576307">
        <ele>413.462046</ele>
        <time>2026-04-23T07:59:58.840Z</time>
      </trkpt>
      <trkpt lat="43.311474" lon="12.576310">
        <ele>413.142200</ele>
        <time>2026-04-23T08:01:37.270Z</time>
      </trkpt>
      <trkpt lat="43.311064" lon="12.576234">
        <ele>413.188737</ele>
        <time>2026-04-23T08:02:19.233Z</time>
      </trkpt>
      <trkpt lat="43.311009" lon="12.576073">
        <ele>413.203295</ele>
        <time>2026-04-23T08:02:32.369Z</time>
      </trkpt>
      <trkpt lat="43.310879" lon="12.576100">
        <ele>413.218085</ele>
        <time>2026-04-23T08:02:45.614Z</time>
      </trkpt>
      <trkpt lat="43.310597" lon="12.576180">
        <ele>413.250475</ele>
        <time>2026-04-23T08:03:14.786Z</time>
      </trkpt>
      <trkpt lat="43.310520" lon="12.576178">
        <ele>413.259138</ele>
        <time>2026-04-23T08:03:22.507Z</time>
      </trkpt>
      <trkpt lat="43.310153" lon="12.576175">
        <ele>413.347074</ele>
        <time>2026-04-23T08:03:59.817Z</time>
      </trkpt>
      <trkpt lat="43.310088" lon="12.576170">
        <ele>413.401692</ele>
        <time>2026-04-23T08:04:06.397Z</time>
      </trkpt>
      <trkpt lat="43.309798" lon="12.576143">
        <ele>413.645552</ele>
        <time>2026-04-23T08:04:35.887Z</time>
      </trkpt>
      <trkpt lat="43.309743" lon="12.576150">
        <ele>413.691892</ele>
        <time>2026-04-23T08:04:41.451Z</time>
      </trkpt>
      <trkpt lat="43.309282" lon="12.576161">
        <ele>414.078716</ele>
        <time>2026-04-23T08:05:28.749Z</time>
      </trkpt>
      <trkpt lat="43.308739" lon="12.576174">
        <ele>414.534346</ele>
        <time>2026-04-23T08:06:24.992Z</time>
      </trkpt>
      <trkpt lat="43.308415" lon="12.576351">
        <ele>414.859770</ele>
        <time>2026-04-23T08:07:01.339Z</time>
      </trkpt>
      <trkpt lat="43.307868" lon="12.576791">
        <ele>416.101214</ele>
        <time>2026-04-23T08:08:07.592Z</time>
      </trkpt>
      <trkpt lat="43.306960" lon="12.577518">
        <ele>418.159540</ele>
        <time>2026-04-23T08:09:59.853Z</time>
      </trkpt>
      <trkpt lat="43.306429" lon="12.577942">
        <ele>420.184622</ele>
        <time>2026-04-23T08:11:08.120Z</time>
      </trkpt>
      <trkpt lat="43.306078" lon="12.578223">
        <ele>421.610962</ele>
        <time>2026-04-23T08:11:54.126Z</time>
      </trkpt>
      <trkpt lat="43.305499" lon="12.578623">
        <ele>423.886432</ele>
        <time>2026-04-23T08:13:08.493Z</time>
      </trkpt>
      <trkpt lat="43.303820" lon="12.579281">
        <ele>430.354797</ele>
        <time>2026-04-23T08:16:29.680Z</time>
      </trkpt>
      <trkpt lat="43.303738" lon="12.579215">
        <ele>430.709447</ele>
        <time>2026-04-23T08:16:40.474Z</time>
      </trkpt>
      <trkpt lat="43.303502" lon="12.579151">
        <ele>431.409152</ele>
        <time>2026-04-23T08:17:07.707Z</time>
      </trkpt>
      <trkpt lat="43.303316" lon="12.579124">
        <ele>431.563129</ele>
        <time>2026-04-23T08:17:28.730Z</time>
      </trkpt>
      <trkpt lat="43.303039" lon="12.579518">
        <ele>431.891339</ele>
        <time>2026-04-23T08:18:12.917Z</time>
      </trkpt>
      <trkpt lat="43.302933" lon="12.579569">
        <ele>431.983798</ele>
        <time>2026-04-23T08:18:25.300Z</time>
      </trkpt>
      <trkpt lat="43.302792" lon="12.579586">
        <ele>432.100322</ele>
        <time>2026-04-23T08:18:40.624Z</time>
      </trkpt>
      <trkpt lat="43.302438" lon="12.579525">
        <ele>432.394036</ele>
        <time>2026-04-23T08:19:18.342Z</time>
      </trkpt>
      <trkpt lat="43.301818" lon="12.579276">
        <ele>432.355824</ele>
        <time>2026-04-23T08:20:24.172Z</time>
      </trkpt>
      <trkpt lat="43.301418" lon="12.579127">
        <ele>430.582382</ele>
        <time>2026-04-23T08:21:08.490Z</time>
      </trkpt>
      <trkpt lat="43.301048" lon="12.579092">
        <ele>428.995346</ele>
        <time>2026-04-23T08:21:49.545Z</time>
      </trkpt>
      <trkpt lat="43.300953" lon="12.579114">
        <ele>428.583093</ele>
        <time>2026-04-23T08:22:00.289Z</time>
      </trkpt>
      <trkpt lat="43.300734" lon="12.579284">
        <ele>427.506755</ele>
        <time>2026-04-23T08:22:29.007Z</time>
      </trkpt>
      <trkpt lat="43.300621" lon="12.579519">
        <ele>426.629596</ele>
        <time>2026-04-23T08:22:52.657Z</time>
      </trkpt>
      <trkpt lat="43.300309" lon="12.580653">
        <ele>422.775836</ele>
        <time>2026-04-23T08:24:34.261Z</time>
      </trkpt>
      <trkpt lat="43.300173" lon="12.580893">
        <ele>421.796088</ele>
        <time>2026-04-23T08:24:59.096Z</time>
      </trkpt>
      <trkpt lat="43.300080" lon="12.580949">
        <ele>421.346693</ele>
        <time>2026-04-23T08:25:10.441Z</time>
      </trkpt>
      <trkpt lat="43.299994" lon="12.580926">
        <ele>420.958924</ele>
        <time>2026-04-23T08:25:20.080Z</time>
      </trkpt>
      <trkpt lat="43.299819" lon="12.580751">
        <ele>420.000993</ele>
        <time>2026-04-23T08:25:43.950Z</time>
      </trkpt>
      <trkpt lat="43.299765" lon="12.580611">
        <ele>419.490627</ele>
        <time>2026-04-23T08:25:56.461Z</time>
      </trkpt>
      <trkpt lat="43.299293" lon="12.579171">
        <ele>416.353165</ele>
        <time>2026-04-23T08:27:57.806Z</time>
      </trkpt>
      <trkpt lat="43.299074" lon="12.578978">
        <ele>416.011238</ele>
        <time>2026-04-23T08:28:24.330Z</time>
      </trkpt>
      <trkpt lat="43.298793" lon="12.578892">
        <ele>415.632891</ele>
        <time>2026-04-23T08:28:53.521Z</time>
      </trkpt>
      <trkpt lat="43.298783" lon="12.578927">
        <ele>415.596927</ele>
        <time>2026-04-23T08:28:56.323Z</time>
      </trkpt>
      <trkpt lat="43.298591" lon="12.578927">
        <ele>415.344596</ele>
        <time>2026-04-23T08:29:15.604Z</time>
      </trkpt>
      <trkpt lat="43.298330" lon="12.579002">
        <ele>414.994162</ele>
        <time>2026-04-23T08:29:42.418Z</time>
      </trkpt>
      <trkpt lat="43.298210" lon="12.579073">
        <ele>414.822455</ele>
        <time>2026-04-23T08:29:55.524Z</time>
      </trkpt>
      <trkpt lat="43.297789" lon="12.579302">
        <ele>416.122987</ele>
        <time>2026-04-23T08:30:42.272Z</time>
      </trkpt>
      <trkpt lat="43.297567" lon="12.579170">
        <ele>416.834543</ele>
        <time>2026-04-23T08:31:08.153Z</time>
      </trkpt>
      <trkpt lat="43.297494" lon="12.579261">
        <ele>417.124485</ele>
        <time>2026-04-23T08:31:18.863Z</time>
      </trkpt>
      <trkpt lat="43.297270" lon="12.579377">
        <ele>417.828647</ele>
        <time>2026-04-23T08:31:45.043Z</time>
      </trkpt>
      <trkpt lat="43.295136" lon="12.579410">
        <ele>426.260715</ele>
        <time>2026-04-23T08:35:53.051Z</time>
      </trkpt>
      <trkpt lat="43.294909" lon="12.579485">
        <ele>427.317120</ele>
        <time>2026-04-23T08:36:21.254Z</time>
      </trkpt>
      <trkpt lat="43.294674" lon="12.579617">
        <ele>428.477692</ele>
        <time>2026-04-23T08:36:52.161Z</time>
      </trkpt>
      <trkpt lat="43.294442" lon="12.579670">
        <ele>429.598059</ele>
        <time>2026-04-23T08:37:20.918Z</time>
      </trkpt>
      <trkpt lat="43.293827" lon="12.579606">
        <ele>432.536169</ele>
        <time>2026-04-23T08:38:36.554Z</time>
      </trkpt>
      <trkpt lat="43.293642" lon="12.579529">
        <ele>433.457019</ele>
        <time>2026-04-23T08:38:59.818Z</time>
      </trkpt>
      <trkpt lat="43.293142" lon="12.579246">
        <ele>436.033107</ele>
        <time>2026-04-23T08:40:03.198Z</time>
      </trkpt>
      <trkpt lat="43.293022" lon="12.579204">
        <ele>436.623017</ele>
        <time>2026-04-23T08:40:17.280Z</time>
      </trkpt>
      <trkpt lat="43.292205" lon="12.578629">
        <ele>438.606404</ele>
        <time>2026-04-23T08:41:55.609Z</time>
      </trkpt>
      <trkpt lat="43.291632" lon="12.578433">
        <ele>439.813435</ele>
        <time>2026-04-23T08:42:55.295Z</time>
      </trkpt>
      <trkpt lat="43.290301" lon="12.577788">
        <ele>442.363547</ele>
        <time>2026-04-23T08:45:21.903Z</time>
      </trkpt>
      <trkpt lat="43.290108" lon="12.577751">
        <ele>442.701560</ele>
        <time>2026-04-23T08:45:42.775Z</time>
      </trkpt>
      <trkpt lat="43.289943" lon="12.577759">
        <ele>442.987940</ele>
        <time>2026-04-23T08:46:00.587Z</time>
      </trkpt>
      <trkpt lat="43.289778" lon="12.577714">
        <ele>443.279727</ele>
        <time>2026-04-23T08:46:18.688Z</time>
      </trkpt>
      <trkpt lat="43.289555" lon="12.577616">
        <ele>443.788761</ele>
        <time>2026-04-23T08:46:43.727Z</time>
      </trkpt>
      <trkpt lat="43.289128" lon="12.577293">
        <ele>445.736222</ele>
        <time>2026-04-23T08:47:36.425Z</time>
      </trkpt>
      <trkpt lat="43.288989" lon="12.577258">
        <ele>446.300807</ele>
        <time>2026-04-23T08:47:51.832Z</time>
      </trkpt>
      <trkpt lat="43.288644" lon="12.577337">
        <ele>447.698170</ele>
        <time>2026-04-23T08:48:30.521Z</time>
      </trkpt>
      <trkpt lat="43.288176" lon="12.577506">
        <ele>449.631444</ele>
        <time>2026-04-23T08:49:25.041Z</time>
      </trkpt>
      <trkpt lat="43.287172" lon="12.578031">
        <ele>457.091422</ele>
        <time>2026-04-23T08:51:34.991Z</time>
      </trkpt>
      <trkpt lat="43.287036" lon="12.578183">
        <ele>458.500715</ele>
        <time>2026-04-23T08:51:57.630Z</time>
      </trkpt>
      <trkpt lat="43.286796" lon="12.578181">
        <ele>460.429931</ele>
        <time>2026-04-23T08:52:29.000Z</time>
      </trkpt>
      <trkpt lat="43.285842" lon="12.578827">
        <ele>470.201338</ele>
        <time>2026-04-23T08:54:54.248Z</time>
      </trkpt>
      <trkpt lat="43.285452" lon="12.578932">
        <ele>474.442778</ele>
        <time>2026-04-23T08:55:51.468Z</time>
      </trkpt>
      <trkpt lat="43.283956" lon="12.579546">
        <ele>490.761455</ele>
        <time>2026-04-23T08:59:32.542Z</time>
      </trkpt>
      <trkpt lat="43.283188" lon="12.579711">
        <ele>498.628136</ele>
        <time>2026-04-23T09:01:15.766Z</time>
      </trkpt>
      <trkpt lat="43.283111" lon="12.579697">
        <ele>499.414176</ele>
        <time>2026-04-23T09:01:25.855Z</time>
      </trkpt>
      <trkpt lat="43.283025" lon="12.579628">
        <ele>500.422078</ele>
        <time>2026-04-23T09:01:38.678Z</time>
      </trkpt>
      <trkpt lat="43.281907" lon="12.578473">
        <ele>513.690359</ele>
        <time>2026-04-23T09:04:36.237Z</time>
      </trkpt>
      <trkpt lat="43.281084" lon="12.577576">
        <ele>524.190667</ele>
        <time>2026-04-23T09:06:55.716Z</time>
      </trkpt>
      <trkpt lat="43.280814" lon="12.577407">
        <ele>527.424415</ele>
        <time>2026-04-23T09:07:37.617Z</time>
      </trkpt>
      <trkpt lat="43.280754" lon="12.577335">
        <ele>528.292723</ele>
        <time>2026-04-23T09:07:49.127Z</time>
      </trkpt>
      <trkpt lat="43.280593" lon="12.576860">
        <ele>532.449965</ele>
        <time>2026-04-23T09:08:44.711Z</time>
      </trkpt>
      <trkpt lat="43.280412" lon="12.576479">
        <ele>536.059638</ele>
        <time>2026-04-23T09:09:33.634Z</time>
      </trkpt>
      <trkpt lat="43.280109" lon="12.576161">
        <ele>540.204566</ele>
        <time>2026-04-23T09:10:29.621Z</time>
      </trkpt>
      <trkpt lat="43.279918" lon="12.576052">
        <ele>542.436626</ele>
        <time>2026-04-23T09:10:59.178Z</time>
      </trkpt>
      <trkpt lat="43.279824" lon="12.576029">
        <ele>543.467029</ele>
        <time>2026-04-23T09:11:12.575Z</time>
      </trkpt>
      <trkpt lat="43.279265" lon="12.576035">
        <ele>549.499858</ele>
        <time>2026-04-23T09:12:28.530Z</time>
      </trkpt>
      <trkpt lat="43.278825" lon="12.576005">
        <ele>554.254119</ele>
        <time>2026-04-23T09:13:26.784Z</time>
      </trkpt>
      <trkpt lat="43.278534" lon="12.575921">
        <ele>557.463145</ele>
        <time>2026-04-23T09:14:05.892Z</time>
      </trkpt>
      <trkpt lat="43.277756" lon="12.575491">
        <ele>566.823272</ele>
        <time>2026-04-23T09:15:57.506Z</time>
      </trkpt>
      <trkpt lat="43.277302" lon="12.574878">
        <ele>573.959572</ele>
        <time>2026-04-23T09:17:27.706Z</time>
      </trkpt>
      <trkpt lat="43.277025" lon="12.574663">
        <ele>577.526103</ele>
        <time>2026-04-23T09:18:14.766Z</time>
      </trkpt>
      <trkpt lat="43.276787" lon="12.574538">
        <ele>580.442841</ele>
        <time>2026-04-23T09:18:53.009Z</time>
      </trkpt>
      <trkpt lat="43.276413" lon="12.574224">
        <ele>585.530032</ele>
        <time>2026-04-23T09:19:58.479Z</time>
      </trkpt>
      <trkpt lat="43.275989" lon="12.573988">
        <ele>590.839546</ele>
        <time>2026-04-23T09:21:06.349Z</time>
      </trkpt>
      <trkpt lat="43.275096" lon="12.573780">
        <ele>601.195420</ele>
        <time>2026-04-23T09:23:11.544Z</time>
      </trkpt>
      <trkpt lat="43.274897" lon="12.573666">
        <ele>603.481613</ele>
        <time>2026-04-23T09:23:40.404Z</time>
      </trkpt>
      <trkpt lat="43.274588" lon="12.573353">
        <ele>607.552621</ele>
        <time>2026-04-23T09:24:31.058Z</time>
      </trkpt>
      <trkpt lat="43.273585" lon="12.572539">
        <ele>619.862636</ele>
        <time>2026-04-23T09:27:06.278Z</time>
      </trkpt>
      <trkpt lat="43.273347" lon="12.572443">
        <ele>622.405515</ele>
        <time>2026-04-23T09:27:41.244Z</time>
      </trkpt>
      <trkpt lat="43.272473" lon="12.572235">
        <ele>631.498764</ele>
        <time>2026-04-23T09:29:49.235Z</time>
      </trkpt>
      <trkpt lat="43.272342" lon="12.572189">
        <ele>632.884896</ele>
        <time>2026-04-23T09:30:08.526Z</time>
      </trkpt>
      <trkpt lat="43.272213" lon="12.572101">
        <ele>634.361469</ele>
        <time>2026-04-23T09:30:28.310Z</time>
      </trkpt>
      <trkpt lat="43.271746" lon="12.571466">
        <ele>640.079163</ele>
        <time>2026-04-23T09:31:54.360Z</time>
      </trkpt>
      <trkpt lat="43.271647" lon="12.571297">
        <ele>641.290058</ele>
        <time>2026-04-23T09:32:13.948Z</time>
      </trkpt>
      <trkpt lat="43.271592" lon="12.571101">
        <ele>642.462690</ele>
        <time>2026-04-23T09:32:32.384Z</time>
      </trkpt>
      <trkpt lat="43.271540" lon="12.570704">
        <ele>644.714550</ele>
        <time>2026-04-23T09:33:07.229Z</time>
      </trkpt>
      <trkpt lat="43.271564" lon="12.569875">
        <ele>649.346168</ele>
        <time>2026-04-23T09:34:18.791Z</time>
      </trkpt>
      <trkpt lat="43.271544" lon="12.569425">
        <ele>651.692976</ele>
        <time>2026-04-23T09:34:59.079Z</time>
      </trkpt>
      <trkpt lat="43.271385" lon="12.568871">
        <ele>654.461469</ele>
        <time>2026-04-23T09:35:54.848Z</time>
      </trkpt>
      <trkpt lat="43.271156" lon="12.568526">
        <ele>656.631891</ele>
        <time>2026-04-23T09:36:39.919Z</time>
      </trkpt>
      <trkpt lat="43.270509" lon="12.567935">
        <ele>661.593402</ele>
        <time>2026-04-23T09:38:19.692Z</time>
      </trkpt>
      <trkpt lat="43.270431" lon="12.568105">
        <ele>662.329314</ele>
        <time>2026-04-23T09:38:37.439Z</time>
      </trkpt>
      <trkpt lat="43.270264" lon="12.568771">
        <ele>662.304769</ele>
        <time>2026-04-23T09:39:35.334Z</time>
      </trkpt>
      <trkpt lat="43.270199" lon="12.568853">
        <ele>662.300546</ele>
        <time>2026-04-23T09:39:44.417Z</time>
      </trkpt>
      <trkpt lat="43.270028" lon="12.568900">
        <ele>662.292200</ele>
        <time>2026-04-23T09:40:02.100Z</time>
      </trkpt>
      <trkpt lat="43.269683" lon="12.568831">
        <ele>662.275516</ele>
        <time>2026-04-23T09:40:39.268Z</time>
      </trkpt>
      <trkpt lat="43.269369" lon="12.568931">
        <ele>662.260091</ele>
        <time>2026-04-23T09:41:14.717Z</time>
      </trkpt>
      <trkpt lat="43.269079" lon="12.569070">
        <ele>662.245392</ele>
        <time>2026-04-23T09:41:48.747Z</time>
      </trkpt>
      <trkpt lat="43.268980" lon="12.569158">
        <ele>661.929055</ele>
        <time>2026-04-23T09:42:01.896Z</time>
      </trkpt>
      <trkpt lat="43.268838" lon="12.569427">
        <ele>661.193105</ele>
        <time>2026-04-23T09:42:28.764Z</time>
      </trkpt>
      <trkpt lat="43.268741" lon="12.569688">
        <ele>660.544032</ele>
        <time>2026-04-23T09:42:52.278Z</time>
      </trkpt>
      <trkpt lat="43.268519" lon="12.570520">
        <ele>658.581282</ele>
        <time>2026-04-23T09:44:01.898Z</time>
      </trkpt>
      <trkpt lat="43.268460" lon="12.570626">
        <ele>658.285747</ele>
        <time>2026-04-23T09:44:12.131Z</time>
      </trkpt>
      <trkpt lat="43.268361" lon="12.570711">
        <ele>657.930577</ele>
        <time>2026-04-23T09:44:24.268Z</time>
      </trkpt>
      <trkpt lat="43.268085" lon="12.570863">
        <ele>657.025989</ele>
        <time>2026-04-23T09:44:54.817Z</time>
      </trkpt>
      <trkpt lat="43.267983" lon="12.570967">
        <ele>656.618561</ele>
        <time>2026-04-23T09:45:07.727Z</time>
      </trkpt>
      <trkpt lat="43.267852" lon="12.571181">
        <ele>655.902116</ele>
        <time>2026-04-23T09:45:28.528Z</time>
      </trkpt>
      <trkpt lat="43.267702" lon="12.571502">
        <ele>654.924695</ele>
        <time>2026-04-23T09:45:57.076Z</time>
      </trkpt>
      <trkpt lat="43.267655" lon="12.571712">
        <ele>654.361697</ele>
        <time>2026-04-23T09:46:13.711Z</time>
      </trkpt>
      <trkpt lat="43.267665" lon="12.572282">
        <ele>652.900574</ele>
        <time>2026-04-23T09:46:57.646Z</time>
      </trkpt>
      <trkpt lat="43.267635" lon="12.572421">
        <ele>652.529050</ele>
        <time>2026-04-23T09:47:08.982Z</time>
      </trkpt>
      <trkpt lat="43.267522" lon="12.572684">
        <ele>651.746496</ele>
        <time>2026-04-23T09:47:32.918Z</time>
      </trkpt>
      <trkpt lat="43.267150" lon="12.573390">
        <ele>649.087242</ele>
        <time>2026-04-23T09:48:42.627Z</time>
      </trkpt>
      <trkpt lat="43.266660" lon="12.574055">
        <ele>645.552063</ele>
        <time>2026-04-23T09:50:00.798Z</time>
      </trkpt>
      <trkpt lat="43.266622" lon="12.574195">
        <ele>644.993761</ele>
        <time>2026-04-23T09:50:13.119Z</time>
      </trkpt>
      <trkpt lat="43.266420" lon="12.574197">
        <ele>643.957142</ele>
        <time>2026-04-23T09:50:36.027Z</time>
      </trkpt>
      <trkpt lat="43.265754" lon="12.574363">
        <ele>640.902072</ele>
        <time>2026-04-23T09:51:52.405Z</time>
      </trkpt>
      <trkpt lat="43.265084" lon="12.574582">
        <ele>639.394819</ele>
        <time>2026-04-23T09:53:09.004Z</time>
      </trkpt>
      <trkpt lat="43.264792" lon="12.574774">
        <ele>638.686303</ele>
        <time>2026-04-23T09:53:43.385Z</time>
      </trkpt>
      <trkpt lat="43.264512" lon="12.574890">
        <ele>638.046248</ele>
        <time>2026-04-23T09:54:13.142Z</time>
      </trkpt>
      <trkpt lat="43.264126" lon="12.574902">
        <ele>637.381318</ele>
        <time>2026-04-23T09:54:53.752Z</time>
      </trkpt>
      <trkpt lat="43.264056" lon="12.574927">
        <ele>637.599864</ele>
        <time>2026-04-23T09:55:01.654Z</time>
      </trkpt>
      <trkpt lat="43.263654" lon="12.575230">
        <ele>638.985473</ele>
        <time>2026-04-23T09:55:54.208Z</time>
      </trkpt>
      <trkpt lat="43.263313" lon="12.575262">
        <ele>640.018231</ele>
        <time>2026-04-23T09:56:35.349Z</time>
      </trkpt>
      <trkpt lat="43.263052" lon="12.575341">
        <ele>640.825791</ele>
        <time>2026-04-23T09:57:08.029Z</time>
      </trkpt>
      <trkpt lat="43.262444" lon="12.575968">
        <ele>642.684509</ele>
        <time>2026-04-23T09:58:39.379Z</time>
      </trkpt>
      <trkpt lat="43.262231" lon="12.575970">
        <ele>642.642107</ele>
        <time>2026-04-23T09:59:03.505Z</time>
      </trkpt>
      <trkpt lat="43.262035" lon="12.576075">
        <ele>642.600227</ele>
        <time>2026-04-23T09:59:26.306Z</time>
      </trkpt>
      <trkpt lat="43.261936" lon="12.576172">
        <ele>642.576018</ele>
        <time>2026-04-23T09:59:39.099Z</time>
      </trkpt>
      <trkpt lat="43.261466" lon="12.577043">
        <ele>642.418869</ele>
        <time>2026-04-23T10:00:59.711Z</time>
      </trkpt>
      <trkpt lat="43.261325" lon="12.577219">
        <ele>642.380938</ele>
        <time>2026-04-23T10:01:20.009Z</time>
      </trkpt>
      <trkpt lat="43.261109" lon="12.577159">
        <ele>641.789823</ele>
        <time>2026-04-23T10:01:43.984Z</time>
      </trkpt>
      <trkpt lat="43.261002" lon="12.577085">
        <ele>640.975726</ele>
        <time>2026-04-23T10:01:57.058Z</time>
      </trkpt>
      <trkpt lat="43.260894" lon="12.576950">
        <ele>639.983313</ele>
        <time>2026-04-23T10:02:13.224Z</time>
      </trkpt>
      <trkpt lat="43.260756" lon="12.576632">
        <ele>638.151454</ele>
        <time>2026-04-23T10:02:43.260Z</time>
      </trkpt>
      <trkpt lat="43.260649" lon="12.576496">
        <ele>637.160699</ele>
        <time>2026-04-23T10:02:59.670Z</time>
      </trkpt>
      <trkpt lat="43.260533" lon="12.576421">
        <ele>636.289448</ele>
        <time>2026-04-23T10:03:14.216Z</time>
      </trkpt>
      <trkpt lat="43.259975" lon="12.576216">
        <ele>632.364351</ele>
        <time>2026-04-23T10:04:21.768Z</time>
      </trkpt>
      <trkpt lat="43.259829" lon="12.576024">
        <ele>630.990659</ele>
        <time>2026-04-23T10:04:46.069Z</time>
      </trkpt>
      <trkpt lat="43.259727" lon="12.575836">
        <ele>629.707559</ele>
        <time>2026-04-23T10:05:06.903Z</time>
      </trkpt>
      <trkpt lat="43.259501" lon="12.575226">
        <ele>624.936770</ele>
        <time>2026-04-23T10:06:08.717Z</time>
      </trkpt>
      <trkpt lat="43.259435" lon="12.575142">
        <ele>624.075400</ele>
        <time>2026-04-23T10:06:19.816Z</time>
      </trkpt>
      <trkpt lat="43.259219" lon="12.575076">
        <ele>621.957313</ele>
        <time>2026-04-23T10:06:47.298Z</time>
      </trkpt>
      <trkpt lat="43.258903" lon="12.575095">
        <ele>618.929714</ele>
        <time>2026-04-23T10:07:26.356Z</time>
      </trkpt>
      <trkpt lat="43.258832" lon="12.575173">
        <ele>618.059372</ele>
        <time>2026-04-23T10:07:37.443Z</time>
      </trkpt>
      <trkpt lat="43.258758" lon="12.575382">
        <ele>616.439407</ele>
        <time>2026-04-23T10:07:57.907Z</time>
      </trkpt>
      <trkpt lat="43.258707" lon="12.575397">
        <ele>615.940171</ele>
        <time>2026-04-23T10:08:04.244Z</time>
      </trkpt>
      <trkpt lat="43.258603" lon="12.575358">
        <ele>614.908244</ele>
        <time>2026-04-23T10:08:16.915Z</time>
      </trkpt>
      <trkpt lat="43.258386" lon="12.575201">
        <ele>612.678681</ele>
        <time>2026-04-23T10:08:45.506Z</time>
      </trkpt>
      <trkpt lat="43.258205" lon="12.574951">
        <ele>611.040501</ele>
        <time>2026-04-23T10:09:14.869Z</time>
      </trkpt>
      <trkpt lat="43.257916" lon="12.574439">
        <ele>608.030212</ele>
        <time>2026-04-23T10:10:07.282Z</time>
      </trkpt>
      <trkpt lat="43.257720" lon="12.574253">
        <ele>606.509915</ele>
        <time>2026-04-23T10:10:33.501Z</time>
      </trkpt>
      <trkpt lat="43.257276" lon="12.574493">
        <ele>603.465138</ele>
        <time>2026-04-23T10:11:25.872Z</time>
      </trkpt>
      <trkpt lat="43.257010" lon="12.574712">
        <ele>601.486065</ele>
        <time>2026-04-23T10:11:59.996Z</time>
      </trkpt>
      <trkpt lat="43.256925" lon="12.574740">
        <ele>600.988768</ele>
        <time>2026-04-23T10:12:09.657Z</time>
      </trkpt>
      <trkpt lat="43.256746" lon="12.574706">
        <ele>599.972508</ele>
        <time>2026-04-23T10:12:29.573Z</time>
      </trkpt>
      <trkpt lat="43.256423" lon="12.574568">
        <ele>598.070090</ele>
        <time>2026-04-23T10:13:07.228Z</time>
      </trkpt>
      <trkpt lat="43.255869" lon="12.574553">
        <ele>594.953856</ele>
        <time>2026-04-23T10:14:08.988Z</time>
      </trkpt>
      <trkpt lat="43.255383" lon="12.574397">
        <ele>592.146959</ele>
        <time>2026-04-23T10:15:04.501Z</time>
      </trkpt>
      <trkpt lat="43.254981" lon="12.574461">
        <ele>589.604427</ele>
        <time>2026-04-23T10:15:49.372Z</time>
      </trkpt>
      <trkpt lat="43.254151" lon="12.574844">
        <ele>583.775708</ele>
        <time>2026-04-23T10:17:27.480Z</time>
      </trkpt>
      <trkpt lat="43.254024" lon="12.574858">
        <ele>582.927590</ele>
        <time>2026-04-23T10:17:42.007Z</time>
      </trkpt>
      <trkpt lat="43.253476" lon="12.574762">
        <ele>579.225509</ele>
        <time>2026-04-23T10:18:45.685Z</time>
      </trkpt>
      <trkpt lat="43.252871" lon="12.574594">
        <ele>574.098794</ele>
        <time>2026-04-23T10:19:58.364Z</time>
      </trkpt>
      <trkpt lat="43.252413" lon="12.574388">
        <ele>570.095846</ele>
        <time>2026-04-23T10:20:54.866Z</time>
      </trkpt>
      <trkpt lat="43.252277" lon="12.574388">
        <ele>568.966265</ele>
        <time>2026-04-23T10:21:10.520Z</time>
      </trkpt>
      <trkpt lat="43.252061" lon="12.574439">
        <ele>567.145890</ele>
        <time>2026-04-23T10:21:35.573Z</time>
      </trkpt>
      <trkpt lat="43.251927" lon="12.574501">
        <ele>565.971422</ele>
        <time>2026-04-23T10:21:52.162Z</time>
      </trkpt>
      <trkpt lat="43.251792" lon="12.574574">
        <ele>564.766317</ele>
        <time>2026-04-23T10:22:09.229Z</time>
      </trkpt>
      <trkpt lat="43.251673" lon="12.574682">
        <ele>563.492773</ele>
        <time>2026-04-23T10:22:26.206Z</time>
      </trkpt>
      <trkpt lat="43.251586" lon="12.574803">
        <ele>562.354109</ele>
        <time>2026-04-23T10:22:40.911Z</time>
      </trkpt>
      <trkpt lat="43.251449" lon="12.575089">
        <ele>560.061655</ele>
        <time>2026-04-23T10:23:10.502Z</time>
      </trkpt>
      <trkpt lat="43.251353" lon="12.575373">
        <ele>557.964851</ele>
        <time>2026-04-23T10:23:37.436Z</time>
      </trkpt>
      <trkpt lat="43.251333" lon="12.575643">
        <ele>556.147325</ele>
        <time>2026-04-23T10:24:00.856Z</time>
      </trkpt>
      <trkpt lat="43.251363" lon="12.576062">
        <ele>553.327742</ele>
        <time>2026-04-23T10:24:37.012Z</time>
      </trkpt>
      <trkpt lat="43.251432" lon="12.576440">
        <ele>550.717975</ele>
        <time>2026-04-23T10:25:10.628Z</time>
      </trkpt>
      <trkpt lat="43.251590" lon="12.577051">
        <ele>546.353964</ele>
        <time>2026-04-23T10:26:07.759Z</time>
      </trkpt>
      <trkpt lat="43.251857" lon="12.577687">
        <ele>541.365905</ele>
        <time>2026-04-23T10:27:10.970Z</time>
      </trkpt>
      <trkpt lat="43.251871" lon="12.577868">
        <ele>540.129106</ele>
        <time>2026-04-23T10:27:26.616Z</time>
      </trkpt>
      <trkpt lat="43.251749" lon="12.578182">
        <ele>537.710900</ele>
        <time>2026-04-23T10:27:57.169Z</time>
      </trkpt>
      <trkpt lat="43.251525" lon="12.578435">
        <ele>535.004899</ele>
        <time>2026-04-23T10:28:31.453Z</time>
      </trkpt>
      <trkpt lat="43.251280" lon="12.578557">
        <ele>532.573547</ele>
        <time>2026-04-23T10:29:02.429Z</time>
      </trkpt>
      <trkpt lat="43.250889" lon="12.578662">
        <ele>528.794638</ele>
        <time>2026-04-23T10:29:49.816Z</time>
      </trkpt>
      <trkpt lat="43.250593" lon="12.578678">
        <ele>525.954342</ele>
        <time>2026-04-23T10:30:25.101Z</time>
      </trkpt>
      <trkpt lat="43.250492" lon="12.578731">
        <ele>524.917613</ele>
        <time>2026-04-23T10:30:37.901Z</time>
      </trkpt>
      <trkpt lat="43.250413" lon="12.578824">
        <ele>523.919825</ele>
        <time>2026-04-23T10:30:50.202Z</time>
      </trkpt>
      <trkpt lat="43.250349" lon="12.579074">
        <ele>522.069200</ele>
        <time>2026-04-23T10:31:12.910Z</time>
      </trkpt>
      <trkpt lat="43.250343" lon="12.579250">
        <ele>520.838723</ele>
        <time>2026-04-23T10:31:27.925Z</time>
      </trkpt>
      <trkpt lat="43.250436" lon="12.580357">
        <ele>512.782524</ele>
        <time>2026-04-23T10:33:02.022Z</time>
      </trkpt>
      <trkpt lat="43.250663" lon="12.580882">
        <ele>507.040638</ele>
        <time>2026-04-23T10:33:54.913Z</time>
      </trkpt>
      <trkpt lat="43.250653" lon="12.580955">
        <ele>506.342063</ele>
        <time>2026-04-23T10:34:01.532Z</time>
      </trkpt>
      <trkpt lat="43.250589" lon="12.580979">
        <ele>505.485424</ele>
        <time>2026-04-23T10:34:09.626Z</time>
      </trkpt>
      <trkpt lat="43.250187" lon="12.580903">
        <ele>500.245814</ele>
        <time>2026-04-23T10:35:00.665Z</time>
      </trkpt>
      <trkpt lat="43.249871" lon="12.581015">
        <ele>496.031848</ele>
        <time>2026-04-23T10:35:43.279Z</time>
      </trkpt>
      <trkpt lat="43.249711" lon="12.581169">
        <ele>493.508812</ele>
        <time>2026-04-23T10:36:09.436Z</time>
      </trkpt>
      <trkpt lat="43.249459" lon="12.581285">
        <ele>490.024087</ele>
        <time>2026-04-23T10:36:45.996Z</time>
      </trkpt>
      <trkpt lat="43.248927" lon="12.581374">
        <ele>482.433693</ele>
        <time>2026-04-23T10:37:59.512Z</time>
      </trkpt>
      <trkpt lat="43.248793" lon="12.581343">
        <ele>480.509109</ele>
        <time>2026-04-23T10:38:17.361Z</time>
      </trkpt>
      <trkpt lat="43.248652" lon="12.581077">
        <ele>477.115318</ele>
        <time>2026-04-23T10:38:48.576Z</time>
      </trkpt>
      <trkpt lat="43.248580" lon="12.581070">
        <ele>476.093036</ele>
        <time>2026-04-23T10:38:57.791Z</time>
      </trkpt>
      <trkpt lat="43.248480" lon="12.581267">
        <ele>473.615941</ele>
        <time>2026-04-23T10:39:20.130Z</time>
      </trkpt>
      <trkpt lat="43.248495" lon="12.581496">
        <ele>471.244021</ele>
        <time>2026-04-23T10:39:41.280Z</time>
      </trkpt>
      <trkpt lat="43.248584" lon="12.581765">
        <ele>468.196130</ele>
        <time>2026-04-23T10:40:08.229Z</time>
      </trkpt>
      <trkpt lat="43.248820" lon="12.581944">
        <ele>464.674544</ele>
        <time>2026-04-23T10:40:41.702Z</time>
      </trkpt>
      <trkpt lat="43.249138" lon="12.582092">
        <ele>461.750431</ele>
        <time>2026-04-23T10:41:23.078Z</time>
      </trkpt>
      <trkpt lat="43.249159" lon="12.582192">
        <ele>461.090280</ele>
        <time>2026-04-23T10:41:32.412Z</time>
      </trkpt>
      <trkpt lat="43.249052" lon="12.582313">
        <ele>459.883067</ele>
        <time>2026-04-23T10:41:49.305Z</time>
      </trkpt>
      <trkpt lat="43.248834" lon="12.582363">
        <ele>457.958294</ele>
        <time>2026-04-23T10:42:16.292Z</time>
      </trkpt>
      <trkpt lat="43.248628" lon="12.582358">
        <ele>456.164054</ele>
        <time>2026-04-23T10:42:41.327Z</time>
      </trkpt>
      <trkpt lat="43.248377" lon="12.582297">
        <ele>453.944226</ele>
        <time>2026-04-23T10:43:12.039Z</time>
      </trkpt>
      <trkpt lat="43.248210" lon="12.582183">
        <ele>452.320040</ele>
        <time>2026-04-23T10:43:34.057Z</time>
      </trkpt>
      <trkpt lat="43.248129" lon="12.582167">
        <ele>451.607384</ele>
        <time>2026-04-23T10:43:43.509Z</time>
      </trkpt>
      <trkpt lat="43.248099" lon="12.582194">
        <ele>451.294994</ele>
        <time>2026-04-23T10:43:47.655Z</time>
      </trkpt>
      <trkpt lat="43.248098" lon="12.582233">
        <ele>451.047454</ele>
        <time>2026-04-23T10:43:50.890Z</time>
      </trkpt>
      <trkpt lat="43.248256" lon="12.582576">
        <ele>449.760472</ele>
        <time>2026-04-23T10:44:23.963Z</time>
      </trkpt>
      <trkpt lat="43.248243" lon="12.582710">
        <ele>449.993691</ele>
        <time>2026-04-23T10:44:34.555Z</time>
      </trkpt>
      <trkpt lat="43.248049" lon="12.582929">
        <ele>450.588568</ele>
        <time>2026-04-23T10:45:00.637Z</time>
      </trkpt>
      <trkpt lat="43.247900" lon="12.583035">
        <ele>450.986042</ele>
        <time>2026-04-23T10:45:17.654Z</time>
      </trkpt>
      <trkpt lat="43.247809" lon="12.583066">
        <ele>451.208112</ele>
        <time>2026-04-23T10:45:27.606Z</time>
      </trkpt>
      <trkpt lat="43.247265" lon="12.582700">
        <ele>452.642982</ele>
        <time>2026-04-23T10:46:38.163Z</time>
      </trkpt>
      <trkpt lat="43.246665" lon="12.582179">
        <ele>455.777894</ele>
        <time>2026-04-23T10:48:11.898Z</time>
      </trkpt>
      <trkpt lat="43.246386" lon="12.581902">
        <ele>458.639875</ele>
        <time>2026-04-23T10:49:00.565Z</time>
      </trkpt>
      <trkpt lat="43.245940" lon="12.581350">
        <ele>463.631226</ele>
        <time>2026-04-23T10:50:26.747Z</time>
      </trkpt>
      <trkpt lat="43.245816" lon="12.581061">
        <ele>465.662037</ele>
        <time>2026-04-23T10:51:00.077Z</time>
      </trkpt>
      <trkpt lat="43.245726" lon="12.580728">
        <ele>467.812572</ele>
        <time>2026-04-23T10:51:34.856Z</time>
      </trkpt>
      <trkpt lat="43.245625" lon="12.580456">
        <ele>469.138899</ele>
        <time>2026-04-23T10:52:04.119Z</time>
      </trkpt>
      <trkpt lat="43.244954" lon="12.579254">
        <ele>473.347582</ele>
        <time>2026-04-23T10:54:11.145Z</time>
      </trkpt>
      <trkpt lat="43.244772" lon="12.578761">
        <ele>474.883621</ele>
        <time>2026-04-23T10:54:52.249Z</time>
      </trkpt>
      <trkpt lat="43.244461" lon="12.578420">
        <ele>475.137843</ele>
        <time>2026-04-23T10:55:32.102Z</time>
      </trkpt>
      <trkpt lat="43.243893" lon="12.577637">
        <ele>473.608459</ele>
        <time>2026-04-23T10:56:55.257Z</time>
      </trkpt>
      <trkpt lat="43.243591" lon="12.577174">
        <ele>472.748303</ele>
        <time>2026-04-23T10:57:43.015Z</time>
      </trkpt>
      <trkpt lat="43.243527" lon="12.576978">
        <ele>472.451026</ele>
        <time>2026-04-23T10:57:59.750Z</time>
      </trkpt>
      <trkpt lat="43.243501" lon="12.576752">
        <ele>472.119679</ele>
        <time>2026-04-23T10:58:17.792Z</time>
      </trkpt>
      <trkpt lat="43.243454" lon="12.576630">
        <ele>471.492458</ele>
        <time>2026-04-23T10:58:28.863Z</time>
      </trkpt>
      <trkpt lat="43.243218" lon="12.576409">
        <ele>469.710124</ele>
        <time>2026-04-23T10:59:00.783Z</time>
      </trkpt>
      <trkpt lat="43.242963" lon="12.575981">
        <ele>467.197221</ele>
        <time>2026-04-23T10:59:46.473Z</time>
      </trkpt>
      <trkpt lat="43.242873" lon="12.575889">
        <ele>466.497143</ele>
        <time>2026-04-23T10:59:59.274Z</time>
      </trkpt>
      <trkpt lat="43.242542" lon="12.575656">
        <ele>464.176387</ele>
        <time>2026-04-23T11:00:41.863Z</time>
      </trkpt>
      <trkpt lat="43.242182" lon="12.575448">
        <ele>461.739545</ele>
        <time>2026-04-23T11:01:26.786Z</time>
      </trkpt>
      <trkpt lat="43.242076" lon="12.575401">
        <ele>461.044578</ele>
        <time>2026-04-23T11:01:39.662Z</time>
      </trkpt>
      <trkpt lat="43.242016" lon="12.575423">
        <ele>460.614011</ele>
        <time>2026-04-23T11:01:46.874Z</time>
      </trkpt>
      <trkpt lat="43.241743" lon="12.575747">
        <ele>457.992145</ele>
        <time>2026-04-23T11:02:29.195Z</time>
      </trkpt>
      <trkpt lat="43.241543" lon="12.576128">
        <ele>455.506736</ele>
        <time>2026-04-23T11:03:09.799Z</time>
      </trkpt>
      <trkpt lat="43.241187" lon="12.576540">
        <ele>452.123837</ele>
        <time>2026-04-23T11:04:04.508Z</time>
      </trkpt>
      <trkpt lat="43.241035" lon="12.576773">
        <ele>450.468497</ele>
        <time>2026-04-23T11:04:30.879Z</time>
      </trkpt>
      <trkpt lat="43.240980" lon="12.576878">
        <ele>449.784039</ele>
        <time>2026-04-23T11:04:41.679Z</time>
      </trkpt>
      <trkpt lat="43.240809" lon="12.577073">
        <ele>448.168948</ele>
        <time>2026-04-23T11:05:06.948Z</time>
      </trkpt>
      <trkpt lat="43.240671" lon="12.577315">
        <ele>447.185535</ele>
        <time>2026-04-23T11:05:32.075Z</time>
      </trkpt>
      <trkpt lat="43.240588" lon="12.577467">
        <ele>446.673968</ele>
        <time>2026-04-23T11:05:47.646Z</time>
      </trkpt>
      <trkpt lat="43.240230" lon="12.578605">
        <ele>443.335766</ele>
        <time>2026-04-23T11:07:26.606Z</time>
      </trkpt>
      <trkpt lat="43.239688" lon="12.579295">
        <ele>441.318481</ele>
        <time>2026-04-23T11:08:42.690Z</time>
      </trkpt>
      <trkpt lat="43.239445" lon="12.579735">
        <ele>441.605690</ele>
        <time>2026-04-23T11:09:23.188Z</time>
      </trkpt>
      <trkpt lat="43.239160" lon="12.580383">
        <ele>441.999426</ele>
        <time>2026-04-23T11:10:20.191Z</time>
      </trkpt>
      <trkpt lat="43.238957" lon="12.580626">
        <ele>442.191746</ele>
        <time>2026-04-23T11:10:49.826Z</time>
      </trkpt>
      <trkpt lat="43.238664" lon="12.580882">
        <ele>442.439742</ele>
        <time>2026-04-23T11:11:28.762Z</time>
      </trkpt>
      <trkpt lat="43.238569" lon="12.581011">
        <ele>442.684671</ele>
        <time>2026-04-23T11:11:43.627Z</time>
      </trkpt>
      <trkpt lat="43.238476" lon="12.581213">
        <ele>443.194550</ele>
        <time>2026-04-23T11:12:03.113Z</time>
      </trkpt>
      <trkpt lat="43.238388" lon="12.581521">
        <ele>443.900487</ele>
        <time>2026-04-23T11:12:30.030Z</time>
      </trkpt>
      <trkpt lat="43.238142" lon="12.582002">
        <ele>445.154496</ele>
        <time>2026-04-23T11:13:17.896Z</time>
      </trkpt>
      <trkpt lat="43.237986" lon="12.582251">
        <ele>445.855256</ele>
        <time>2026-04-23T11:13:44.797Z</time>
      </trkpt>
      <trkpt lat="43.237755" lon="12.582744">
        <ele>447.106011</ele>
        <time>2026-04-23T11:14:33.298Z</time>
      </trkpt>
      <trkpt lat="43.237684" lon="12.582956">
        <ele>447.603886</ele>
        <time>2026-04-23T11:14:52.529Z</time>
      </trkpt>
      <trkpt lat="43.237558" lon="12.583714">
        <ele>448.752856</ele>
        <time>2026-04-23T11:15:55.376Z</time>
      </trkpt>
      <trkpt lat="43.237350" lon="12.584171">
        <ele>449.513733</ele>
        <time>2026-04-23T11:16:38.078Z</time>
      </trkpt>
      <trkpt lat="43.236938" lon="12.584733">
        <ele>450.639526</ele>
        <time>2026-04-23T11:17:39.428Z</time>
      </trkpt>
      <trkpt lat="43.236811" lon="12.584830">
        <ele>450.921220</ele>
        <time>2026-04-23T11:17:54.364Z</time>
      </trkpt>
      <trkpt lat="43.236510" lon="12.584984">
        <ele>451.241246</ele>
        <time>2026-04-23T11:18:26.936Z</time>
      </trkpt>
      <trkpt lat="43.235700" lon="12.585616">
        <ele>451.241246</ele>
        <time>2026-04-23T11:20:00.203Z</time>
      </trkpt>
      <trkpt lat="43.235616" lon="12.585669">
        <ele>451.241246</ele>
        <time>2026-04-23T11:20:09.485Z</time>
      </trkpt>
    </trkseg>
  </trk>
</gpx>